KCRW/CRW METAR and TAF weather

Enter ICAO airport designator
Station Type Date Time Source
KCRW METAR 2020/09/22 05:54 UTC NOAA

KCRW 220554Z 00000KT 10SM CLR 08/07 A3031 RMK AO2 SLP263 T00780072 10156 20078 58007


Station Type Date Time Source
KCRW Decoded METAR 2020/09/22 05:54 UTC NOAA

YEAGER AIRPORT, WV, United States (KCRW) 38-22N 081-36W 309M
Sep 22, 2020 - 01:54 AM EDT / 2020.09.22 0554 UTC
Wind: Calm:0
Visibility: 10 mile(s):0
Sky conditions: clear
Temperature: 46.0 F (7.8 C)
Dew Point: 45.0 F (7.2 C)
Relative Humidity: 95%
Pressure (altimeter): 30.31 in. Hg (1026 hPa)
Pressure tendency: 0.02 inches (0.7 hPa) lower than three hours ago
ob: KCRW 220554Z 00000KT 10SM CLR 08/07 A3031 RMK AO2 SLP263 T00780072 10156 20078 58007
cycle: 6

Station Type Date Time Source
KCRW TAF 2020/09/22 06:33 UTC NOAA

TAF KCRW 220530Z 2206/2306 00000KT 6SM BR VCFG FEW001
FM220700 00000KT 1/2SM FG VV001
FM221300 00000KT 6SM BR SCT001
FM221400 VRB04KT P6SM SCT250

Example: see airport list